Time;durP1;ratioP1;P1;durP2;ratioP2;P2;SDS_P1;SDS_P2;PMS_P1;PMS_P2;Temp;Humidity;BMP_temperature;BMP_pressure;BME280_temperature;BME280_humidity;BME280_pressure;Samples;Min_cycle;Max_cycle;Signal;HPM_P1;HPM_P2
2023/05/06 00:02:14;;;;;;;11.90;5.30;;;8.50;99.90;;;;;;5033594;28;20225;-48
2023/05/06 00:04:40;;;;;;;9.93;5.40;;;8.60;99.90;;;;;;5033650;28;20211;-48
2023/05/06 00:07:05;;;;;;;12.67;5.77;;;8.50;1.00;;;;;;5032997;28;20253;-48
2023/05/06 00:09:31;;;;;;;9.17;6.40;;;8.60;99.90;;;;;;5033700;28;20172;-48
2023/05/06 00:11:57;;;;;;;11.00;5.83;;;8.50;99.90;;;;;;5033239;28;20628;-49
2023/05/06 00:14:22;;;;;;;7.20;5.40;;;8.60;99.90;;;;;;5033184;28;20267;-48
2023/05/06 00:16:49;;;;;;;9.73;5.50;;;8.60;99.90;;;;;;5033278;28;20187;-48
2023/05/06 00:19:15;;;;;;;11.90;5.37;;;8.60;99.90;;;;;;5033087;28;20514;-48
2023/05/06 00:21:41;;;;;;;9.33;5.93;;;8.60;99.90;;;;;;5033225;28;20444;-48
2023/05/06 00:24:06;;;;;;;10.60;6.10;;;8.60;99.90;;;;;;5032829;28;20186;-48
2023/05/06 00:26:32;;;;;;;12.47;6.40;;;8.60;99.90;;;;;;5033163;28;20183;-48
2023/05/06 00:28:57;;;;;;;12.50;6.03;;;8.60;99.90;;;;;;5032869;28;20175;-48
2023/05/06 00:31:23;;;;;;;16.90;7.10;;;8.60;99.90;;;;;;5033038;28;20179;-48
2023/05/06 00:33:49;;;;;;;9.57;5.60;;;8.70;99.90;;;;;;5032612;28;20268;-48
2023/05/06 00:36:14;;;;;;;10.83;5.97;;;8.60;99.90;;;;;;5035453;28;20193;-48
2023/05/06 00:38:40;;;;;;;11.73;5.93;;;8.60;99.90;;;;;;5036957;28;20643;-48
2023/05/06 00:41:06;;;;;;;7.80;4.87;;;8.50;1.00;;;;;;5036617;28;20278;-48
2023/05/06 00:43:32;;;;;;;10.33;6.07;;;8.50;1.00;;;;;;5036472;28;20218;-48
2023/05/06 00:45:58;;;;;;;11.97;5.90;;;8.50;1.00;;;;;;5036620;28;20426;-48
2023/05/06 00:48:24;;;;;;;15.37;6.13;;;8.50;1.00;;;;;;5036149;28;20242;-49
2023/05/06 00:50:49;;;;;;;10.73;6.20;;;8.60;1.00;;;;;;5036551;28;20176;-48
2023/05/06 00:53:19;;;;;;;13.90;6.47;;;8.60;1.00;;;;;;5036473;28;20209;-48
2023/05/06 00:55:44;;;;;;;11.10;6.10;;;8.60;99.90;;;;;;5036055;28;20641;-48
2023/05/06 00:58:10;;;;;;;12.17;6.90;;;8.60;1.00;;;;;;5035927;28;20418;-49
2023/05/06 01:00:35;;;;;;;15.13;6.40;;;8.60;1.00;;;;;;5036500;28;20184;-48
2023/05/06 01:03:01;;;;;;;7.83;5.70;;;8.60;1.00;;;;;;5036080;28;20709;-48
2023/05/06 01:05:34;;;;;;;10.23;6.33;;;8.60;1.00;;;;;;5036125;28;20184;-48
2023/05/06 01:08:11;;;;;;;9.00;5.87;;;8.50;1.00;;;;;;5036077;28;20261;-49
2023/05/06 01:10:46;;;;;;;8.30;5.77;;;8.60;2.50;;;;;;5036040;28;20965;-48
2023/05/06 01:13:32;;;;;;;12.10;7.60;;;8.60;45.20;;;;;;5035757;28;20555;-48
2023/05/06 01:16:00;;;;;;;11.80;6.10;;;8.50;98.80;;;;;;5036362;28;20422;-48
2023/05/06 01:18:27;;;;;;;11.87;6.07;;;8.50;99.90;;;;;;5036179;28;20418;-48
2023/05/06 01:20:54;;;;;;;9.70;6.40;;;8.60;99.90;;;;;;5036176;28;20422;-48
2023/05/06 01:23:20;;;;;;;12.47;6.20;;;8.60;99.90;;;;;;5035666;28;20419;-48
2023/05/06 01:25:46;;;;;;;11.30;6.00;;;8.60;99.90;;;;;;5035623;28;20439;-48
2023/05/06 01:28:12;;;;;;;12.50;5.87;;;8.60;99.90;;;;;;5035815;28;20206;-48
2023/05/06 01:30:43;;;;;;;10.10;6.27;;;8.60;1.00;;;;;;5035829;28;20195;-48
2023/05/06 01:33:31;;;;;;;12.20;5.63;;;8.60;1.00;;;;;;5035677;28;20457;-48
2023/05/06 01:35:59;;;;;;;13.27;5.90;;;8.70;1.00;;;;;;5035834;28;21143;-48
2023/05/06 01:38:45;;;;;;;13.10;5.60;;;8.70;1.00;;;;;;5035794;28;20792;-48
2023/05/06 01:41:15;;;;;;;13.90;6.50;;;8.70;99.90;;;;;;5035761;28;20411;-48
2023/05/06 01:43:43;;;;;;;15.03;6.90;;;8.60;1.00;;;;;;5035337;28;20910;-48
2023/05/06 01:46:17;;;;;;;11.33;6.20;;;8.50;1.00;;;;;;5035480;28;20553;-48
2023/05/06 01:48:45;;;;;;;10.70;6.50;;;8.50;99.90;;;;;;5035217;28;20560;-48
2023/05/06 01:51:10;;;;;;;14.40;7.40;;;8.50;99.90;;;;;;5035310;28;20419;-48
2023/05/06 01:53:36;;;;;;;11.07;7.00;;;8.60;99.90;;;;;;5034871;28;20527;-48
2023/05/06 01:56:02;;;;;;;17.20;8.57;;;8.60;99.90;;;;;;5035487;28;20184;-48
2023/05/06 01:58:27;;;;;;;13.20;6.90;;;8.50;99.90;;;;;;5035336;28;20704;-48
2023/05/06 02:00:53;;;;;;;15.70;6.73;;;8.50;99.90;;;;;;5035285;28;20694;-47
2023/05/06 02:03:18;;;;;;;15.77;8.00;;;8.50;1.00;;;;;;5035322;28;20186;-48
2023/05/06 02:05:44;;;;;;;12.40;7.70;;;8.40;1.00;;;;;;5035157;28;20207;-47
2023/05/06 02:08:09;;;;;;;13.27;7.40;;;8.50;2.70;;;;;;5035381;28;20234;-48
2023/05/06 02:10:35;;;;;;;13.60;7.30;;;8.50;56.60;;;;;;5034892;28;20198;-48
2023/05/06 02:13:00;;;;;;;11.57;7.27;;;8.50;99.90;;;;;;5034471;28;20219;-48
2023/05/06 02:15:26;;;;;;;16.00;8.23;;;8.50;99.90;;;;;;5034831;28;20180;-48
2023/05/06 02:17:52;;;;;;;15.40;7.93;;;8.50;99.90;;;;;;5034830;28;20183;-48
2023/05/06 02:20:17;;;;;;;16.10;8.47;;;8.40;99.90;;;;;;5034683;28;20709;-48
2023/05/06 02:22:43;;;;;;;15.70;8.47;;;8.40;99.90;;;;;;5034661;28;20184;-48
2023/05/06 02:25:09;;;;;;;18.60;9.27;;;8.40;99.90;;;;;;5034454;28;20179;-48
2023/05/06 02:27:34;;;;;;;19.93;7.80;;;8.40;99.90;;;;;;5034560;28;20652;-47
2023/05/06 02:30:01;;;;;;;11.17;7.90;;;8.30;99.90;;;;;;5034323;28;20425;-47
2023/05/06 02:32:27;;;;;;;15.37;7.80;;;8.40;99.90;;;;;;5034772;28;20266;-48
2023/05/06 02:34:53;;;;;;;14.23;8.07;;;8.40;99.90;;;;;;5034164;28;20469;-48
2023/05/06 02:37:18;;;;;;;15.63;8.80;;;8.40;99.90;;;;;;5034392;28;20194;-48
2023/05/06 02:39:44;;;;;;;14.63;8.17;;;8.40;99.90;;;;;;5034561;28;20198;-47
2023/05/06 02:42:13;;;;;;;14.40;8.90;;;8.40;99.90;;;;;;5034577;28;20203;-47
2023/05/06 02:44:39;;;;;;;12.70;8.87;;;8.40;99.90;;;;;;5034669;28;20209;-47
2023/05/06 02:47:05;;;;;;;15.60;8.80;;;8.40;99.90;;;;;;5034362;28;20967;-47
2023/05/06 02:49:30;;;;;;;13.30;8.70;;;8.50;99.90;;;;;;5033921;28;20474;-46
2023/05/06 02:51:56;;;;;;;13.27;9.37;;;8.50;99.90;;;;;;5034588;28;20186;-47
2023/05/06 02:54:22;;;;;;;11.50;8.80;;;8.40;99.90;;;;;;5034189;28;20211;-47
2023/05/06 02:56:48;;;;;;;13.63;9.23;;;8.40;99.90;;;;;;5034447;28;20231;-47
2023/05/06 02:59:14;;;;;;;15.60;9.33;;;8.40;99.90;;;;;;5033579;28;20886;-47
2023/05/06 03:01:40;;;;;;;12.27;8.80;;;8.30;99.90;;;;;;5034007;28;20185;-46
2023/05/06 03:04:05;;;;;;;20.37;9.20;;;8.30;99.90;;;;;;5033951;28;20280;-47
2023/05/06 03:06:31;;;;;;;14.50;9.37;;;8.40;99.90;;;;;;5033886;28;20213;-47
2023/05/06 03:08:57;;;;;;;14.20;8.47;;;8.40;99.90;;;;;;5033817;28;20469;-46
2023/05/06 03:11:22;;;;;;;15.67;9.03;;;8.30;99.90;;;;;;5033648;28;20706;-46
2023/05/06 03:13:48;;;;;;;14.70;9.30;;;8.30;99.90;;;;;;5033418;28;20202;-47
2023/05/06 03:16:13;;;;;;;14.73;9.47;;;8.30;99.90;;;;;;5033673;28;20241;-47
2023/05/06 03:18:39;;;;;;;13.83;8.97;;;8.40;99.90;;;;;;5033939;28;20182;-46
2023/05/06 03:21:05;;;;;;;11.67;8.30;;;8.30;99.90;;;;;;5033886;28;20624;-47
2023/05/06 03:23:31;;;;;;;14.13;9.00;;;8.40;99.90;;;;;;5033956;28;20186;-46
2023/05/06 03:25:56;;;;;;;16.00;9.30;;;8.40;99.90;;;;;;5033564;28;20425;-48
2023/05/06 03:28:22;;;;;;;11.73;8.80;;;8.40;99.90;;;;;;5033894;28;20233;-47
2023/05/06 03:30:48;;;;;;;14.60;9.30;;;8.40;99.90;;;;;;5033905;28;20269;-46
2023/05/06 03:33:13;;;;;;;16.33;9.83;;;8.40;99.90;;;;;;5033429;28;20210;-46
2023/05/06 03:35:39;;;;;;;13.63;9.27;;;8.40;99.90;;;;;;5033374;28;20195;-47
2023/05/06 03:38:05;;;;;;;17.43;8.73;;;8.40;99.90;;;;;;5033395;28;20183;-47
2023/05/06 03:40:31;;;;;;;14.20;8.97;;;8.40;99.90;;;;;;5033700;28;20179;-46
2023/05/06 03:42:56;;;;;;;15.77;10.00;;;8.40;99.90;;;;;;5033622;28;20413;-47
2023/05/06 03:45:22;;;;;;;15.77;9.80;;;8.40;99.90;;;;;;5033167;28;20183;-46
2023/05/06 03:47:47;;;;;;;12.50;9.30;;;8.40;99.90;;;;;;5033361;28;20246;-47
2023/05/06 03:50:13;;;;;;;22.30;9.57;;;8.30;99.90;;;;;;5033251;28;20198;-46
2023/05/06 03:52:39;;;;;;;13.37;8.97;;;8.30;99.90;;;;;;5033073;28;20246;-47
2023/05/06 03:55:05;;;;;;;17.03;9.40;;;8.30;99.90;;;;;;5033240;28;20250;-47
2023/05/06 03:57:30;;;;;;;14.43;8.60;;;8.40;99.90;;;;;;5033407;28;20664;-47
2023/05/06 03:59:56;;;;;;;12.13;9.00;;;8.30;99.90;;;;;;5033100;28;20418;-47
2023/05/06 04:02:21;;;;;;;13.40;9.07;;;8.30;99.90;;;;;;5033436;28;20180;-47
2023/05/06 04:04:47;;;;;;;12.33;9.47;;;8.30;99.90;;;;;;5032957;28;20226;-47
2023/05/06 04:07:13;;;;;;;14.33;9.83;;;8.20;99.90;;;;;;5031779;28;20180;-47
2023/05/06 04:09:38;;;;;;;18.27;10.30;;;8.30;99.90;;;;;;5033181;28;20182;-46
2023/05/06 04:12:04;;;;;;;15.30;9.13;;;8.30;99.90;;;;;;5037229;28;20186;-47
2023/05/06 04:14:30;;;;;;;12.70;8.77;;;8.40;99.90;;;;;;5036764;28;20215;-46
2023/05/06 04:16:56;;;;;;;12.47;9.00;;;8.40;99.90;;;;;;5037083;28;20176;-46
2023/05/06 04:19:22;;;;;;;11.40;8.83;;;8.30;99.90;;;;;;5037121;28;20429;-47
2023/05/06 04:21:47;;;;;;;14.10;9.50;;;8.30;99.90;;;;;;5036903;28;20665;-46
2023/05/06 04:24:14;;;;;;;12.60;9.57;;;8.20;99.90;;;;;;5036626;28;20675;-46
2023/05/06 04:26:40;;;;;;;11.00;8.30;;;8.30;99.90;;;;;;5036839;28;20704;-47
2023/05/06 04:29:06;;;;;;;12.43;8.90;;;8.30;99.90;;;;;;5036952;28;20748;-47
2023/05/06 04:31:33;;;;;;;20.50;10.33;;;8.30;99.90;;;;;;5036889;28;20454;-46
2023/05/06 04:33:59;;;;;;;15.83;9.90;;;8.20;99.90;;;;;;5036932;28;20512;-47
2023/05/06 04:36:25;;;;;;;14.03;9.60;;;8.20;99.90;;;;;;5037066;28;20414;-46
2023/05/06 04:38:52;;;;;;;11.53;8.87;;;8.20;99.90;;;;;;5036385;28;21004;-46
2023/05/06 04:41:18;;;;;;;13.70;10.43;;;8.30;99.90;;;;;;5036643;28;20211;-47
2023/05/06 04:43:43;;;;;;;15.27;9.87;;;8.30;99.90;;;;;;5036453;28;20839;-46
2023/05/06 04:46:09;;;;;;;16.53;9.90;;;8.40;99.90;;;;;;5036568;28;20414;-46
2023/05/06 04:48:35;;;;;;;13.40;10.13;;;8.40;99.90;;;;;;5036259;28;20239;-46
2023/05/06 04:51:04;;;;;;;14.03;9.37;;;8.40;99.90;;;;;;5036768;28;20279;-47
2023/05/06 04:53:29;;;;;;;14.17;9.53;;;8.50;99.90;;;;;;5036404;28;20992;-47
2023/05/06 04:55:55;;;;;;;18.30;9.60;;;8.50;99.90;;;;;;5036167;28;20449;-46
2023/05/06 04:58:21;;;;;;;23.47;11.77;;;8.50;99.90;;;;;;5036517;28;20184;-47
2023/05/06 05:00:46;;;;;;;14.83;10.33;;;8.40;99.90;;;;;;5036411;28;20207;-47
2023/05/06 05:03:12;;;;;;;16.80;9.57;;;8.50;99.90;;;;;;5036672;28;20185;-48
2023/05/06 05:05:38;;;;;;;16.83;10.50;;;8.40;99.90;;;;;;5036429;28;20179;-46
2023/05/06 05:08:03;;;;;;;20.63;10.90;;;8.40;99.90;;;;;;5036040;28;20203;-46
2023/05/06 05:10:29;;;;;;;16.50;10.30;;;8.40;99.90;;;;;;5036483;28;20184;-47
2023/05/06 05:12:55;;;;;;;14.43;9.27;;;8.40;99.90;;;;;;5036191;28;20273;-47
2023/05/06 05:15:20;;;;;;;16.80;10.33;;;8.40;99.90;;;;;;5036025;28;20207;-46
2023/05/06 05:17:46;;;;;;;16.43;9.70;;;8.40;99.90;;;;;;5035904;28;20189;-46
2023/05/06 05:20:12;;;;;;;14.67;9.57;;;8.40;99.90;;;;;;5036195;28;20184;-47
2023/05/06 05:22:37;;;;;;;15.83;10.20;;;8.40;99.90;;;;;;5035431;28;20471;-46
2023/05/06 05:25:03;;;;;;;18.07;10.37;;;8.50;99.90;;;;;;5035498;28;20533;-46
2023/05/06 05:27:29;;;;;;;14.20;10.53;;;8.50;99.90;;;;;;5035942;28;20190;-46
2023/05/06 05:29:55;;;;;;;13.80;9.57;;;8.50;99.90;;;;;;5035939;28;20184;-47
2023/05/06 05:32:21;;;;;;;16.10;9.57;;;8.40;99.90;;;;;;5036019;28;20172;-47
2023/05/06 05:34:46;;;;;;;15.40;9.90;;;8.50;99.90;;;;;;5035338;28;20967;-47
2023/05/06 05:37:12;;;;;;;19.77;10.80;;;8.50;99.90;;;;;;5035763;28;20201;-47
2023/05/06 05:39:37;;;;;;;16.87;10.93;;;8.50;99.90;;;;;;5035574;28;20640;-47
2023/05/06 05:42:03;;;;;;;18.33;10.27;;;8.60;99.90;;;;;;5035609;28;20187;-46
2023/05/06 05:44:29;;;;;;;14.30;10.97;;;8.60;99.90;;;;;;5035362;28;20183;-47
2023/05/06 05:46:55;;;;;;;17.10;10.70;;;8.50;99.90;;;;;;5034973;28;20409;-46
2023/05/06 05:49:20;;;;;;;19.47;10.73;;;8.50;99.90;;;;;;5035057;28;20620;-46
2023/05/06 05:51:46;;;;;;;16.27;10.97;;;8.50;99.90;;;;;;5035554;28;20185;-47
2023/05/06 05:54:13;;;;;;;21.63;12.00;;;8.40;99.90;;;;;;5035241;28;20734;-46
2023/05/06 05:56:38;;;;;;;15.20;10.73;;;8.40;99.90;;;;;;5034882;28;20553;-47
2023/05/06 05:59:04;;;;;;;19.13;11.60;;;8.50;99.90;;;;;;5035175;28;20414;-47
2023/05/06 06:01:30;;;;;;;14.40;10.47;;;8.50;99.90;;;;;;5035459;28;20183;-47
2023/05/06 06:03:56;;;;;;;14.10;10.73;;;8.50;99.90;;;;;;5034824;28;20190;-47
2023/05/06 06:06:23;;;;;;;16.40;10.90;;;8.60;99.90;;;;;;5035153;28;20187;-48
2023/05/06 06:08:48;;;;;;;17.80;11.13;;;8.60;99.90;;;;;;5035026;28;20940;-47
2023/05/06 06:11:14;;;;;;;17.10;10.07;;;8.60;99.90;;;;;;5034911;28;20418;-47
2023/05/06 06:13:40;;;;;;;18.13;12.40;;;8.60;99.90;;;;;;5034854;28;20546;-47
2023/05/06 06:16:06;;;;;;;20.43;11.90;;;8.60;99.90;;;;;;5034642;28;20644;-47
2023/05/06 06:18:31;;;;;;;14.43;10.53;;;8.60;99.90;;;;;;5034555;28;20542;-47
2023/05/06 06:20:57;;;;;;;14.77;10.70;;;8.60;99.90;;;;;;5035036;28;20417;-47
2023/05/06 06:23:23;;;;;;;14.90;10.97;;;8.60;99.90;;;;;;5034646;28;20186;-47
2023/05/06 06:25:49;;;;;;;17.77;11.00;;;8.60;99.90;;;;;;5035114;28;20490;-47
2023/05/06 06:28:14;;;;;;;15.20;11.30;;;8.70;99.90;;;;;;5034638;28;20445;-47
2023/05/06 06:30:40;;;;;;;22.27;11.10;;;8.70;99.90;;;;;;5034576;28;20190;-47
2023/05/06 06:33:05;;;;;;;17.77;10.80;;;8.60;99.90;;;;;;5033899;28;20180;-47
2023/05/06 06:35:31;;;;;;;15.03;11.17;;;8.60;99.90;;;;;;5034194;28;20175;-48
2023/05/06 06:37:57;;;;;;;18.70;11.27;;;8.70;99.90;;;;;;5033100;28;20940;-47
2023/05/06 06:40:22;;;;;;;18.03;11.47;;;8.70;99.90;;;;;;5034247;28;20183;-47
2023/05/06 06:42:48;;;;;;;15.43;11.33;;;8.70;99.90;;;;;;5034501;28;20649;-48
2023/05/06 06:45:14;;;;;;;16.97;10.83;;;8.60;99.90;;;;;;5034681;28;20684;-46
2023/05/06 06:47:40;;;;;;;17.50;11.07;;;8.60;99.90;;;;;;5034066;28;20234;-47
2023/05/06 06:50:07;;;;;;;16.50;11.47;;;8.70;99.90;;;;;;5033812;28;20399;-47
2023/05/06 06:52:33;;;;;;;17.03;11.40;;;8.60;99.90;;;;;;5033936;28;20628;-47
2023/05/06 06:54:59;;;;;;;14.10;10.87;;;8.70;99.90;;;;;;5034386;28;20922;-47
2023/05/06 06:57:24;;;;;;;18.13;12.03;;;8.70;99.90;;;;;;5034449;28;20519;-47
2023/05/06 06:59:52;;;;;;;17.60;11.10;;;8.70;99.90;;;;;;5034515;28;20414;-47
2023/05/06 07:02:18;;;;;;;17.50;10.80;;;8.70;99.90;;;;;;5034032;28;20182;-48
2023/05/06 07:04:44;;;;;;;16.10;11.20;;;8.70;99.90;;;;;;5033786;28;20512;-47
2023/05/06 07:07:09;;;;;;;16.20;10.97;;;8.70;99.90;;;;;;5034104;28;20516;-47
2023/05/06 07:09:35;;;;;;;13.10;11.07;;;8.80;99.90;;;;;;5033554;28;20267;-47
2023/05/06 07:12:00;;;;;;;16.07;10.60;;;8.80;99.90;;;;;;5033706;28;20192;-47
2023/05/06 07:14:26;;;;;;;17.60;11.87;;;8.80;99.90;;;;;;5033361;28;20637;-48
2023/05/06 07:16:52;;;;;;;18.80;12.07;;;8.80;99.90;;;;;;5033675;28;20195;-47
2023/05/06 07:19:17;;;;;;;14.13;10.77;;;8.70;99.90;;;;;;5033323;28;20189;-48
2023/05/06 07:21:43;;;;;;;16.90;11.07;;;8.80;99.90;;;;;;5033659;28;20209;-47
2023/05/06 07:24:09;;;;;;;15.77;11.80;;;8.80;99.90;;;;;;5033324;28;20237;-47
2023/05/06 07:26:35;;;;;;;16.80;10.77;;;8.90;99.90;;;;;;5033682;28;20242;-48
2023/05/06 07:29:01;;;;;;;18.47;11.70;;;9.00;99.90;;;;;;5033691;28;20194;-48
2023/05/06 07:31:26;;;;;;;20.40;11.50;;;9.00;99.90;;;;;;5033565;28;20894;-47
2023/05/06 07:33:52;;;;;;;20.60;13.27;;;9.10;99.90;;;;;;5030941;28;20306;-48
2023/05/06 07:36:17;;;;;;;18.97;12.17;;;9.10;99.90;;;;;;5031267;28;20184;-48
2023/05/06 07:38:43;;;;;;;16.07;11.00;;;9.20;99.90;;;;;;5031368;28;20202;-48
2023/05/06 07:41:09;;;;;;;26.07;11.37;;;9.20;99.90;;;;;;5031256;28;20230;-48
2023/05/06 07:43:34;;;;;;;24.10;10.90;;;9.30;99.90;;;;;;5030524;28;20270;-47
2023/05/06 07:46:03;;;;;;;17.87;10.73;;;9.30;99.90;;;;;;5033558;28;20419;-47
2023/05/06 07:48:29;;;;;;;14.13;10.50;;;9.40;99.90;;;;;;5033139;28;20269;-47
2023/05/06 07:50:55;;;;;;;20.63;12.13;;;9.40;99.90;;;;;;5033546;28;20505;-48
2023/05/06 07:53:21;;;;;;;15.63;10.23;;;9.40;99.90;;;;;;5033391;28;20543;-48
2023/05/06 07:55:46;;;;;;;19.60;11.17;;;9.40;99.90;;;;;;5033261;28;20922;-47
2023/05/06 07:58:12;;;;;;;13.30;10.40;;;9.50;99.90;;;;;;5033224;28;20421;-47
2023/05/06 08:00:37;;;;;;;14.63;10.67;;;9.50;99.90;;;;;;5033492;28;20336;-48
2023/05/06 08:03:03;;;;;;;16.00;10.70;;;9.50;99.90;;;;;;5033328;28;20178;-49
2023/05/06 08:05:29;;;;;;;17.43;11.30;;;9.50;99.90;;;;;;5033120;28;20214;-48
2023/05/06 08:07:54;;;;;;;18.10;11.80;;;9.60;99.90;;;;;;5033388;28;20257;-48
2023/05/06 08:10:21;;;;;;;19.83;11.43;;;9.70;99.90;;;;;;5033353;28;20222;-48
2023/05/06 08:12:46;;;;;;;17.70;12.10;;;9.80;99.90;;;;;;5033093;28;20180;-48
2023/05/06 08:15:12;;;;;;;17.10;10.70;;;9.90;99.90;;;;;;5033270;28;20471;-48
2023/05/06 08:17:38;;;;;;;17.10;10.60;;;9.90;99.90;;;;;;5033306;28;20532;-48
2023/05/06 08:20:04;;;;;;;15.83;11.40;;;9.90;75.40;;;;;;5033069;28;20266;-48
2023/05/06 08:22:29;;;;;;;17.97;11.40;;;9.90;33.80;;;;;;5033130;28;20237;-48
2023/05/06 08:24:56;;;;;;;17.00;10.97;;;9.90;12.60;;;;;;5032981;28;20938;-48
2023/05/06 08:27:21;;;;;;;17.50;11.67;;;9.90;1.00;;;;;;5032911;28;20241;-48
2023/05/06 08:29:47;;;;;;;15.43;10.90;;;9.90;1.00;;;;;;5032841;28;20421;-48
2023/05/06 08:32:13;;;;;;;16.90;11.80;;;9.90;1.60;;;;;;5033024;28;20226;-48
2023/05/06 08:34:38;;;;;;;16.27;10.93;;;9.90;9.80;;;;;;5032659;28;20207;-48
2023/05/06 08:37:04;;;;;;;22.30;11.80;;;9.80;4.50;;;;;;5033178;28;20179;-48
2023/05/06 08:39:30;;;;;;;21.27;12.10;;;9.70;1.00;;;;;;5032947;28;20183;-48
2023/05/06 08:41:58;;;;;;;20.53;11.17;;;9.70;1.00;;;;;;5032868;28;20186;-47
2023/05/06 08:44:24;;;;;;;20.30;11.60;;;9.60;1.00;;;;;;5033079;28;20516;-48
2023/05/06 08:46:50;;;;;;;20.63;11.77;;;9.60;14.30;;;;;;5032786;28;20763;-48
2023/05/06 08:49:16;;;;;;;18.37;12.27;;;9.60;66.70;;;;;;5032477;28;20952;-48
2023/05/06 08:51:43;;;;;;;16.00;10.87;;;9.70;99.90;;;;;;5033458;28;20455;-47
2023/05/06 08:54:12;;;;;;;16.07;11.23;;;9.90;99.90;;;;;;5032616;28;20480;-47
2023/05/06 08:56:42;;;;;;;15.13;10.80;;;10.00;99.90;;;;;;5033917;28;20418;-47
2023/05/06 08:59:11;;;;;;;14.77;10.40;;;10.10;90.10;;;;;;5036578;28;20418;-47
2023/05/06 09:01:36;;;;;;;17.57;11.50;;;10.20;91.00;;;;;;5036667;28;20425;-47
2023/05/06 09:04:02;;;;;;;24.37;11.40;;;10.20;1.00;;;;;;5036665;28;20428;-47
2023/05/06 09:06:28;;;;;;;14.37;10.73;;;10.20;1.00;;;;;;5036383;28;20186;-47
2023/05/06 09:08:54;;;;;;;15.73;11.17;;;10.20;1.00;;;;;;5035908;28;20753;-47
2023/05/06 09:11:23;;;;;;;13.93;10.80;;;10.30;1.00;;;;;;5036091;28;20425;-47
2023/05/06 09:13:50;;;;;;;15.00;11.40;;;10.50;1.00;;;;;;5036250;28;20210;-47
2023/05/06 09:16:29;;;;;;;14.30;10.37;;;10.60;1.00;;;;;;5036168;28;20432;-47
2023/05/06 09:18:55;;;;;;;19.17;11.03;;;10.70;1.00;;;;;;5036254;28;20428;-47
2023/05/06 09:21:27;;;;;;;20.93;11.57;;;10.80;1.00;;;;;;5036084;28;20772;-47
2023/05/06 09:23:53;;;;;;;19.70;11.90;;;10.90;1.00;;;;;;5035995;28;20394;-47
2023/05/06 09:26:22;;;;;;;20.70;12.37;;;11.00;1.00;;;;;;5035693;28;20995;-48
2023/05/06 09:28:47;;;;;;;17.87;10.97;;;11.10;1.00;;;;;;5036094;28;20203;-49
2023/05/06 09:31:14;;;;;;;20.00;12.50;;;11.30;1.00;;;;;;5035935;28;20410;-47
2023/05/06 09:33:40;;;;;;;20.90;11.90;;;11.30;99.90;;;;;;5035947;28;20256;-48
2023/05/06 09:36:06;;;;;;;18.10;11.33;;;11.20;99.90;;;;;;5036016;28;20450;-47
2023/05/06 09:38:32;;;;;;;13.80;10.80;;;11.20;99.90;;;;;;5035682;28;20433;-47
2023/05/06 09:40:57;;;;;;;18.20;10.43;;;11.30;99.90;;;;;;5035874;28;20180;-48
2023/05/06 09:43:23;;;;;;;17.07;10.97;;;11.30;99.90;;;;;;5035812;28;20179;-49
2023/05/06 09:45:50;;;;;;;17.03;11.27;;;11.30;99.90;;;;;;5035343;28;20190;-48
2023/05/06 09:48:15;;;;;;;18.30;11.53;;;11.40;1.00;;;;;;5035138;28;20481;-48
2023/05/06 09:50:43;;;;;;;17.80;11.13;;;11.40;1.00;;;;;;5035892;28;20416;-47
2023/05/06 09:53:11;;;;;;;14.07;11.63;;;11.40;1.00;;;;;;5035395;28;20184;-47
2023/05/06 09:55:38;;;;;;;18.23;11.60;;;11.40;99.90;;;;;;5034994;28;20921;-48
2023/05/06 09:58:05;;;;;;;19.13;11.17;;;11.40;1.00;;;;;;5035478;28;20430;-48
2023/05/06 10:00:31;;;;;;;15.70;11.63;;;11.50;99.90;;;;;;5035444;28;20413;-48
2023/05/06 10:02:57;;;;;;;16.23;11.90;;;11.60;99.90;;;;;;5035262;28;20777;-48
2023/05/06 10:05:25;;;;;;;24.13;12.17;;;11.60;99.90;;;;;;5035419;28;20187;-48
2023/05/06 10:07:53;;;;;;;16.67;12.37;;;11.60;99.90;;;;;;5034510;28;20446;-48
2023/05/06 10:10:20;;;;;;;21.27;13.00;;;11.60;99.90;;;;;;5035145;28;20521;-48
2023/05/06 10:12:47;;;;;;;16.03;11.07;;;11.50;1.00;;;;;;5035184;28;20414;-48
2023/05/06 10:15:13;;;;;;;18.00;12.33;;;11.50;39.60;;;;;;5034873;28;20512;-49
2023/05/06 10:17:40;;;;;;;18.70;12.03;;;11.50;1.00;;;;;;5034972;28;20453;-49
2023/05/06 10:20:09;;;;;;;19.30;12.53;;;11.40;1.00;;;;;;5035119;28;20179;-48
2023/05/06 10:22:59;;;;;;;18.50;12.20;;;11.60;99.90;;;;;;5035038;28;20414;-48
2023/05/06 10:25:42;;;;;;;21.90;13.07;;;11.50;99.90;;;;;;5034894;28;20414;-49
2023/05/06 10:28:10;;;;;;;24.83;13.30;;;11.60;1.00;;;;;;5034875;28;20480;-48
2023/05/06 10:30:37;;;;;;;18.40;12.80;;;11.60;99.90;;;;;;5034381;28;20422;-48
2023/05/06 10:33:08;;;;;;;17.10;12.07;;;11.60;1.00;;;;;;5034375;28;20421;-49
2023/05/06 10:35:43;;;;;;;18.00;11.87;;;11.60;1.00;;;;;;5034894;28;20497;-49
2023/05/06 10:38:15;;;;;;;19.30;11.90;;;11.60;1.00;;;;;;5034690;28;20409;-49
2023/05/06 10:40:42;;;;;;;14.17;11.13;;;11.40;50.90;;;;;;5034205;28;20414;-49
2023/05/06 10:43:33;;;;;;;15.10;11.27;;;11.40;1.00;;;;;;5034336;28;20410;-48
2023/05/06 10:45:58;;;;;;;16.50;11.77;;;11.40;1.00;;;;;;5034968;28;20416;-48
2023/05/06 10:48:24;;;;;;;17.17;11.40;;;11.50;1.00;;;;;;5033939;28;21017;-48
2023/05/06 10:50:50;;;;;;;22.37;12.40;;;11.40;49.10;;;;;;5034086;28;20933;-48
2023/05/06 10:53:15;;;;;;;18.50;12.13;;;11.40;99.90;;;;;;5034073;28;20193;-48
2023/05/06 10:55:41;;;;;;;16.37;11.40;;;11.30;1.00;;;;;;5034139;28;20184;-49
2023/05/06 10:58:15;;;;;;;20.20;13.27;;;11.40;1.00;;;;;;5034342;28;20680;-49
2023/05/06 11:00:40;;;;;;;19.40;11.80;;;11.30;22.30;;;;;;5033990;28;20217;-49
2023/05/06 11:03:11;;;;;;;19.10;12.17;;;11.40;1.00;;;;;;5033979;28;20414;-48
2023/05/06 11:05:48;;;;;;;16.50;11.37;;;11.40;99.90;;;;;;5034234;28;20410;-48
2023/05/06 11:08:14;;;;;;;20.37;12.20;;;11.30;99.90;;;;;;5034162;28;20923;-48
2023/05/06 11:10:40;;;;;;;20.07;12.83;;;11.30;99.90;;;;;;5034072;28;20456;-49
2023/05/06 11:13:26;;;;;;;15.30;12.30;;;11.20;99.90;;;;;;5033923;28;20456;-49
2023/05/06 11:15:53;;;;;;;22.20;13.30;;;11.20;99.90;;;;;;5034270;28;20183;-48
2023/05/06 11:18:28;;;;;;;19.37;13.07;;;11.10;99.90;;;;;;5033867;28;20422;-48
2023/05/06 11:20:59;;;;;;;21.50;13.47;;;11.10;99.90;;;;;;5033330;28;20926;-48
2023/05/06 11:23:52;;;;;;;20.87;12.10;;;11.10;99.90;;;;;;5033488;28;20418;-48
2023/05/06 11:26:18;;;;;;;21.00;12.70;;;11.00;99.90;;;;;;5033851;28;20450;-48
2023/05/06 11:28:49;;;;;;;23.70;13.00;;;11.10;99.90;;;;;;5033420;28;20418;-48
2023/05/06 11:31:15;;;;;;;16.30;11.83;;;11.10;99.90;;;;;;5033810;28;20247;-48
2023/05/06 11:33:48;;;;;;;22.20;11.93;;;11.20;99.90;;;;;;5033412;28;20626;-48
2023/05/06 11:36:16;;;;;;;23.10;12.50;;;11.20;99.90;;;;;;5033622;28;20196;-48
2023/05/06 11:38:43;;;;;;;19.10;11.60;;;11.10;99.90;;;;;;5033604;28;20432;-52
2023/05/06 11:41:09;;;;;;;21.83;13.57;;;11.10;99.90;;;;;;5033554;28;20418;-48
2023/05/06 11:43:34;;;;;;;19.30;12.70;;;11.10;99.90;;;;;;5033814;28;20953;-48
2023/05/06 11:46:00;;;;;;;18.10;12.17;;;11.10;99.90;;;;;;5033356;28;20529;-48
2023/05/06 11:48:26;;;;;;;29.20;12.80;;;11.20;99.90;;;;;;5033369;28;20237;-49
2023/05/06 11:50:51;;;;;;;20.63;11.97;;;11.20;99.90;;;;;;5033169;28;20663;-48
2023/05/06 11:53:19;;;;;;;20.20;12.20;;;11.10;99.90;;;;;;5033412;28;20179;-48
2023/05/06 11:55:46;;;;;;;20.30;12.13;;;11.00;99.90;;;;;;5033167;28;20644;-48
2023/05/06 11:58:25;;;;;;;19.20;11.77;;;11.00;99.90;;;;;;5033502;28;20517;-49
2023/05/06 12:00:56;;;;;;;23.90;12.07;;;10.80;99.90;;;;;;5033429;28;20500;-49
2023/05/06 12:03:23;;;;;;;18.60;12.03;;;10.60;99.90;;;;;;5033277;28;20419;-49
2023/05/06 12:05:50;;;;;;;18.40;11.83;;;10.60;1.00;;;;;;5033317;28;20409;-48
2023/05/06 12:08:22;;;;;;;18.83;11.90;;;10.70;1.00;;;;;;5033431;28;20791;-50
2023/05/06 12:11:07;;;;;;;18.67;12.17;;;10.70;1.00;;;;;;5033464;28;20406;-50
2023/05/06 12:13:35;;;;;;;25.60;12.80;;;10.80;1.00;;;;;;5033369;28;20449;-49
2023/05/06 12:16:03;;;;;;;16.90;10.43;;;11.00;1.00;;;;;;5033467;28;20824;-49
2023/05/06 12:18:29;;;;;;;17.20;10.80;;;11.20;99.90;;;;;;5033072;28;20929;-49
2023/05/06 12:20:56;;;;;;;19.10;11.47;;;11.30;99.90;;;;;;5032341;28;20416;-49
2023/05/06 12:23:21;;;;;;;17.10;11.90;;;11.30;99.90;;;;;;5032533;28;20415;-49
2023/05/06 12:26:01;;;;;;;17.37;11.13;;;11.40;99.90;;;;;;5033221;28;20421;-49
2023/05/06 12:28:26;;;;;;;18.17;11.37;;;11.40;99.90;;;;;;5033367;28;20174;-50
2023/05/06 12:30:52;;;;;;;19.90;11.37;;;11.50;99.90;;;;;;5033651;28;20501;-49
2023/05/06 12:33:17;;;;;;;23.33;12.70;;;11.50;99.90;;;;;;5036872;28;20184;-49
2023/05/06 12:35:43;;;;;;;19.90;12.10;;;11.50;99.90;;;;;;5036274;28;20267;-49
2023/05/06 12:38:13;;;;;;;17.93;11.43;;;11.60;99.90;;;;;;5036562;28;20184;-49
2023/05/06 12:40:40;;;;;;;20.20;12.23;;;11.60;99.90;;;;;;5037104;28;20188;-49